Cheyenne — 9HAK5 — position and weather

sailwx.info

Track history (hours):
 
Tides and Currents Weather Stations Pressure Air Temp Water Temp Dewpoint Dewpoint Depression Visibility Wind Speed Wind Dir Waves Ship Positions

Cheyenne

Last reported at 2016-Dec-02 11:10 UTC. Time now 2016-Dec-05 00:25 UTC.
Position N 40°58' E 028°56'.

Length 133 m; draft 3.8 m.

Type: Ship. MMSI: 249607000.

Date/timePositionNaut miles runAvg speedWind from/ knotsBaromVisibWave heightAir tempDewpointWater temp
2016-Dec-02 11:10N 40°58' E 028°56'  
2016-Nov-29 08:33N 45°08' E 036°29'8 7.9
2016-Nov-29 07:31N 45°17' E 036°28'8 7.9
2016-Nov-29 06:33N 45°21' E 036°38'7 7.0
2016-Nov-29 05:33N 45°27' E 036°41'2 1.7
2016-Nov-29 04:33N 45°28' E 036°39'0 0.0
2016-Nov-29 03:32N 45°28' E 036°39'0 0.0
2016-Nov-29 02:29N 45°28' E 036°39'0 0.0
2016-Nov-29 01:32N 45°28' E 036°39'0 0.0
2016-Nov-29 00:32N 45°28' E 036°39'0 0.0
2016-Nov-28 23:32N 45°28' E 036°39'0 0.0
2016-Nov-28 22:32N 45°28' E 036°39'0 0.0
2016-Nov-28 21:32N 45°28' E 036°39'0 0.0
2016-Nov-28 20:32N 45°28' E 036°39'0 0.0
2016-Nov-28 19:32N 45°28' E 036°39'0 0.0
2016-Nov-28 18:32N 45°28' E 036°39'0 0.0
2016-Nov-28 17:32N 45°28' E 036°39'0 0.0
2016-Nov-28 16:23N 45°28' E 036°39'0 0.0
2016-Nov-28 15:32N 45°28' E 036°39'0 0.0
2016-Nov-28 14:29N 45°28' E 036°39'0 0.0
2016-Nov-28 13:32N 45°28' E 036°39'0 0.0
2016-Nov-28 12:29N 45°28' E 036°39'0 0.0
2016-Nov-28 11:32N 45°28' E 036°39'0 0.0
2016-Nov-28 10:32N 45°28' E 036°39'0 0.0
2016-Nov-28 09:32N 45°28' E 036°39'0 0.0
2016-Nov-28 08:32N 45°28' E 036°39'0 0.0
2016-Nov-28 07:32N 45°28' E 036°39'0 0.0
2016-Nov-28 06:32N 45°29' E 036°39'0 0.0
2016-Nov-28 05:32N 45°29' E 036°39'0 0.0
2016-Nov-28 04:32N 45°29' E 036°39'0 0.0
2016-Nov-28 03:32N 45°29' E 036°39'0 0.0
2016-Nov-28 02:32N 45°29' E 036°39'0 0.0
2016-Nov-28 01:32N 45°29' E 036°39'0 0.0
2016-Nov-28 00:32N 45°29' E 036°39'0 0.0
2016-Nov-27 23:32N 45°29' E 036°39'0 0.0
2016-Nov-27 21:32N 45°29' E 036°39'0 0.0
2016-Nov-27 19:32N 45°29' E 036°39'0 0.0
2016-Nov-27 18:17N 45°29' E 036°39'2 0.9
2016-Nov-27 16:32N 45°29' E 036°41'  
Track history (hours):
 
Tides and Currents Weather Stations Pressure Air Temp Water Temp Dewpoint Dewpoint Depression Visibility Wind Speed Wind Dir Waves Ship Positions

Cheyenne

Last reported at 2016-Dec-02 11:10 UTC. Time now 2016-Dec-05 00:25 UTC.
Position N 40°58' E 028°56'.

Length 133 m; draft 3.8 m.

Type: Ship. MMSI: 249607000.

Date/timePositionNaut miles runAvg speedWind from/ knotsBaromVisibWave heightAir tempDewpointWater temp
2016-Dec-02 11:10N 40°58' E 028°56'  
2016-Nov-29 08:33N 45°08' E 036°29'8 7.9
2016-Nov-29 07:31N 45°17' E 036°28'8 7.9
2016-Nov-29 06:33N 45°21' E 036°38'7 7.0
2016-Nov-29 05:33N 45°27' E 036°41'2 1.7
2016-Nov-29 04:33N 45°28' E 036°39'0 0.0
2016-Nov-29 03:32N 45°28' E 036°39'0 0.0
2016-Nov-29 02:29N 45°28' E 036°39'0 0.0
2016-Nov-29 01:32N 45°28' E 036°39'0 0.0
2016-Nov-29 00:32N 45°28' E 036°39'0 0.0
2016-Nov-28 23:32N 45°28' E 036°39'0 0.0
2016-Nov-28 22:32N 45°28' E 036°39'0 0.0
2016-Nov-28 21:32N 45°28' E 036°39'0 0.0
2016-Nov-28 20:32N 45°28' E 036°39'0 0.0
2016-Nov-28 19:32N 45°28' E 036°39'0 0.0
2016-Nov-28 18:32N 45°28' E 036°39'0 0.0
2016-Nov-28 17:32N 45°28' E 036°39'0 0.0
2016-Nov-28 16:23N 45°28' E 036°39'0 0.0
2016-Nov-28 15:32N 45°28' E 036°39'0 0.0
2016-Nov-28 14:29N 45°28' E 036°39'0 0.0
2016-Nov-28 13:32N 45°28' E 036°39'0 0.0
2016-Nov-28 12:29N 45°28' E 036°39'0 0.0
2016-Nov-28 11:32N 45°28' E 036°39'0 0.0
2016-Nov-28 10:32N 45°28' E 036°39'0 0.0
2016-Nov-28 09:32N 45°28' E 036°39'0 0.0
2016-Nov-28 08:32N 45°28' E 036°39'0 0.0
2016-Nov-28 07:32N 45°28' E 036°39'0 0.0
2016-Nov-28 06:32N 45°29' E 036°39'0 0.0
2016-Nov-28 05:32N 45°29' E 036°39'0 0.0
2016-Nov-28 04:32N 45°29' E 036°39'0 0.0
2016-Nov-28 03:32N 45°29' E 036°39'0 0.0
2016-Nov-28 02:32N 45°29' E 036°39'0 0.0
2016-Nov-28 01:32N 45°29' E 036°39'0 0.0
2016-Nov-28 00:32N 45°29' E 036°39'0 0.0
2016-Nov-27 23:32N 45°29' E 036°39'0 0.0
2016-Nov-27 21:32N 45°29' E 036°39'0 0.0
2016-Nov-27 19:32N 45°29' E 036°39'0 0.0
2016-Nov-27 18:17N 45°29' E 036°39'2 0.9
2016-Nov-27 16:32N 45°29' E 036°41'  

Dump ship's entire track history